Reklama

Seznam meteostanic a jejich METAR

Vyhledat místa podle abecedy:
A B C D E F G H I J K L M N O P Q R S T U V W X Y Z

Filtrovat:

ID stanice:
a/nebo
Název místa (fulltext):
 
Místo (ID)Naposledy načteno 
Gaborone (FBSK) 08.04.2020 00:00 UTC Zobrazit METAR
FBSK 080000Z 20004KT CAVOK 16/05 Q1018 NOSIG
Gaza (LVGZ) Zatím nenačteno  
Geneva (LSGG) 07.04.2020 23:50 UTC Zobrazit METAR
LSGG 072350Z AUTO VRB02KT CAVOK 07/03 Q1027 NOSIG
George Town (MWCR) 08.04.2020 00:00 UTC Zobrazit METAR
MWCR 080000Z VRB02KT 9999 FEW025 29/24 Q1015
Georgetown (SYCJ) 08.04.2020 00:00 UTC Zobrazit METAR
SYCJ 080000Z 06004KT 9999 SCT016 BKN036 26/24 Q1013 NOSIG
Gibraltar (LXGB) 07.04.2020 23:50 UTC Zobrazit METAR
LXGB 072350Z AUTO 08019KT 9999 // FEW011/// BKN025/// 16/14 Q1024
Glasgow (EGPF) 07.04.2020 14:50 UTC Zobrazit METAR
EGPF 071450Z AUTO 20015KT 9999 SCT037 13/05 Q1025
Gomel (UMGG) 30.08.2014 17:00 UTC Zobrazit METAR
UMGG 301700Z CAVOK 19/10 Q1017 R28/CLRD// NOSIG
Goteborg (ESGG) 07.04.2020 23:50 UTC Zobrazit METAR
ESGG 072350Z 19006KT CAVOK 02/M00 Q1031 R21/09//95
Grand Turk Island (MBGT) 07.04.2020 18:00 UTC Zobrazit METAR
MBGT 071800Z 08010KT 9999 SCT018 27/17 Q1017
Graz (LOWG) 07.04.2020 14:50 UTC Zobrazit METAR
LOWG 071450Z 15011KT CAVOK 18/M06 Q1031 NOSIG
Grodno (UMMG) Zatím nenačteno  
Guatemala City (MGGT) 08.04.2020 00:00 UTC Zobrazit METAR
MGGT 080000Z 02014KT CAVOK 27/07 Q1024 A3024 FEW200
Reklama

Počasí na Váš email

Emaily jsou bez reklamy a bez spamu



Odhlásit newsletter

Reklama


Lunární kalendář

  • 15.04.
  • 23.04.
  • 30.04.
  • 07.05.





Vyhledat na internetu:
Reklama